sensor_id;sensor_type;location;lat;lon;timestamp;temperature;humidity
13115;DHT22;6623;52.120;8.660;2022-11-03T00:01:33;9.60;74.70
13115;DHT22;6623;52.120;8.660;2022-11-03T00:04:02;9.60;74.70
13115;DHT22;6623;52.120;8.660;2022-11-03T00:06:28;9.60;74.60
13115;DHT22;6623;52.120;8.660;2022-11-03T00:08:56;9.60;74.60
13115;DHT22;6623;52.120;8.660;2022-11-03T00:11:21;9.60;74.60
13115;DHT22;6623;52.120;8.660;2022-11-03T00:13:47;11.00;75.50
13115;DHT22;6623;52.120;8.660;2022-11-03T00:16:12;9.80;74.80
13115;DHT22;6623;52.120;8.660;2022-11-03T00:18:38;9.60;74.60
13115;DHT22;6623;52.120;8.660;2022-11-03T00:21:08;9.60;74.60
13115;DHT22;6623;52.120;8.660;2022-11-03T00:23:34;9.60;75.10
13115;DHT22;6623;52.120;8.660;2022-11-03T00:28:32;9.60;74.50
13115;DHT22;6623;52.120;8.660;2022-11-03T00:30:59;10.80;75.20
13115;DHT22;6623;52.120;8.660;2022-11-03T00:33:25;10.20;74.80
13115;DHT22;6623;52.120;8.660;2022-11-03T00:35:55;9.50;74.00
13115;DHT22;6623;52.120;8.660;2022-11-03T00:38:21;9.60;74.60
13115;DHT22;6623;52.120;8.660;2022-11-03T00:40:54;9.70;74.70
13115;DHT22;6623;52.120;8.660;2022-11-03T00:43:20;9.40;74.50
13115;DHT22;6623;52.120;8.660;2022-11-03T00:45:46;11.00;75.50
13115;DHT22;6623;52.120;8.660;2022-11-03T00:48:11;9.70;74.70
13115;DHT22;6623;52.120;8.660;2022-11-03T00:53:24;9.60;74.60
13115;DHT22;6623;52.120;8.660;2022-11-03T00:55:49;9.60;74.80
13115;DHT22;6623;52.120;8.660;2022-11-03T00:58:15;9.70;74.80
13115;DHT22;6623;52.120;8.660;2022-11-03T01:00:40;9.70;74.80
13115;DHT22;6623;52.120;8.660;2022-11-03T01:03:06;9.60;74.80
13115;DHT22;6623;52.120;8.660;2022-11-03T01:05:31;10.30;75.20
13115;DHT22;6623;52.120;8.660;2022-11-03T01:08:15;10.40;75.30
13115;DHT22;6623;52.120;8.660;2022-11-03T01:10:41;10.30;75.30
13115;DHT22;6623;52.120;8.660;2022-11-03T01:13:26;9.60;74.90
13115;DHT22;6623;52.120;8.660;2022-11-03T01:15:55;9.60;74.40
13115;DHT22;6623;52.120;8.660;2022-11-03T01:18:21;9.60;75.10
13115;DHT22;6623;52.120;8.660;2022-11-03T01:20:52;9.60;75.40
13115;DHT22;6623;52.120;8.660;2022-11-03T01:23:18;10.40;75.70
13115;DHT22;6623;52.120;8.660;2022-11-03T01:25:43;9.30;75.20
13115;DHT22;6623;52.120;8.660;2022-11-03T01:28:09;9.40;75.20
13115;DHT22;6623;52.120;8.660;2022-11-03T01:30:34;10.80;76.00
13115;DHT22;6623;52.120;8.660;2022-11-03T01:33:00;9.70;75.50
13115;DHT22;6623;52.120;8.660;2022-11-03T01:35:25;10.20;75.80
13115;DHT22;6623;52.120;8.660;2022-11-03T01:37:51;10.40;76.10
13115;DHT22;6623;52.120;8.660;2022-11-03T01:40:16;9.60;75.60
13115;DHT22;6623;52.120;8.660;2022-11-03T01:42:42;9.70;75.70
13115;DHT22;6623;52.120;8.660;2022-11-03T01:45:08;9.60;75.80
13115;DHT22;6623;52.120;8.660;2022-11-03T01:47:33;9.50;75.70
13115;DHT22;6623;52.120;8.660;2022-11-03T01:52:55;9.50;75.80
13115;DHT22;6623;52.120;8.660;2022-11-03T01:55:26;10.60;76.50
13115;DHT22;6623;52.120;8.660;2022-11-03T01:57:55;11.00;76.80
13115;DHT22;6623;52.120;8.660;2022-11-03T02:00:22;9.40;76.00
13115;DHT22;6623;52.120;8.660;2022-11-03T02:02:47;9.50;76.20
13115;DHT22;6623;52.120;8.660;2022-11-03T02:05:13;9.70;76.40
13115;DHT22;6623;52.120;8.660;2022-11-03T02:08:02;9.40;76.20
13115;DHT22;6623;52.120;8.660;2022-11-03T02:10:25;10.10;76.70
13115;DHT22;6623;52.120;8.660;2022-11-03T02:12:51;9.90;76.80
13115;DHT22;6623;52.120;8.660;2022-11-03T02:15:17;9.50;76.50
13115;DHT22;6623;52.120;8.660;2022-11-03T02:17:43;9.90;76.90
13115;DHT22;6623;52.120;8.660;2022-11-03T02:20:17;9.40;76.70
13115;DHT22;6623;52.120;8.660;2022-11-03T02:27:34;9.30;77.20
13115;DHT22;6623;52.120;8.660;2022-11-03T02:30:00;9.40;77.30
13115;DHT22;6623;52.120;8.660;2022-11-03T02:32:32;9.60;77.60
13115;DHT22;6623;52.120;8.660;2022-11-03T02:35:11;9.30;77.40
13115;DHT22;6623;52.120;8.660;2022-11-03T02:37:42;9.30;77.50
13115;DHT22;6623;52.120;8.660;2022-11-03T02:40:30;9.50;77.50
13115;DHT22;6623;52.120;8.660;2022-11-03T02:42:57;9.30;77.50
13115;DHT22;6623;52.120;8.660;2022-11-03T02:45:23;10.50;78.10
13115;DHT22;6623;52.120;8.660;2022-11-03T02:47:49;9.30;77.50
13115;DHT22;6623;52.120;8.660;2022-11-03T02:50:17;10.10;78.70
13115;DHT22;6623;52.120;8.660;2022-11-03T02:52:45;10.80;78.60
13115;DHT22;6623;52.120;8.660;2022-11-03T02:55:31;9.20;77.70
13115;DHT22;6623;52.120;8.660;2022-11-03T03:00:44;9.20;78.30
13115;DHT22;6623;52.120;8.660;2022-11-03T03:05:53;9.30;78.30
13115;DHT22;6623;52.120;8.660;2022-11-03T03:08:21;9.30;78.30
13115;DHT22;6623;52.120;8.660;2022-11-03T03:10:50;9.20;78.30
13115;DHT22;6623;52.120;8.660;2022-11-03T03:13:17;10.40;79.10
13115;DHT22;6623;52.120;8.660;2022-11-03T03:15:44;9.30;78.80
13115;DHT22;6623;52.120;8.660;2022-11-03T03:18:22;9.80;79.10
13115;DHT22;6623;52.120;8.660;2022-11-03T03:20:58;9.30;78.80
13115;DHT22;6623;52.120;8.660;2022-11-03T03:23:26;9.30;78.90
13115;DHT22;6623;52.120;8.660;2022-11-03T03:26:04;10.10;79.40
13115;DHT22;6623;52.120;8.660;2022-11-03T03:28:33;9.30;79.00
13115;DHT22;6623;52.120;8.660;2022-11-03T03:31:00;8.40;78.70
13115;DHT22;6623;52.120;8.660;2022-11-03T03:33:27;10.10;79.70
13115;DHT22;6623;52.120;8.660;2022-11-03T03:35:54;9.30;79.30
13115;DHT22;6623;52.120;8.660;2022-11-03T03:38:22;10.70;80.20
13115;DHT22;6623;52.120;8.660;2022-11-03T03:40:51;9.50;79.50
13115;DHT22;6623;52.120;8.660;2022-11-03T03:43:18;9.50;79.70
13115;DHT22;6623;52.120;8.660;2022-11-03T03:45:44;9.30;79.60
13115;DHT22;6623;52.120;8.660;2022-11-03T03:48:10;10.40;80.30
13115;DHT22;6623;52.120;8.660;2022-11-03T03:50:36;9.30;79.70
13115;DHT22;6623;52.120;8.660;2022-11-03T03:53:03;10.90;80.70
13115;DHT22;6623;52.120;8.660;2022-11-03T03:55:38;9.40;79.90
13115;DHT22;6623;52.120;8.660;2022-11-03T03:58:07;9.40;79.90
13115;DHT22;6623;52.120;8.660;2022-11-03T04:00:34;9.50;80.00
13115;DHT22;6623;52.120;8.660;2022-11-03T04:03:00;9.30;80.20
13115;DHT22;6623;52.120;8.660;2022-11-03T04:05:25;9.40;80.20
13115;DHT22;6623;52.120;8.660;2022-11-03T04:07:54;9.40;80.20
13115;DHT22;6623;52.120;8.660;2022-11-03T04:10:20;8.90;80.00
13115;DHT22;6623;52.120;8.660;2022-11-03T04:12:46;10.80;81.00
13115;DHT22;6623;52.120;8.660;2022-11-03T04:15:30;9.50;80.30
13115;DHT22;6623;52.120;8.660;2022-11-03T04:18:15;9.50;80.30
13115;DHT22;6623;52.120;8.660;2022-11-03T04:20:59;10.80;81.20
13115;DHT22;6623;52.120;8.660;2022-11-03T04:23:44;10.20;81.00
13115;DHT22;6623;52.120;8.660;2022-11-03T04:26:16;9.40;80.60
13115;DHT22;6623;52.120;8.660;2022-11-03T04:28:42;9.40;80.50
13115;DHT22;6623;52.120;8.660;2022-11-03T04:31:11;9.90;80.90
13115;DHT22;6623;52.120;8.660;2022-11-03T04:33:37;9.40;80.60
13115;DHT22;6623;52.120;8.660;2022-11-03T04:36:04;10.30;81.30
13115;DHT22;6623;52.120;8.660;2022-11-03T04:38:33;9.40;80.80
13115;DHT22;6623;52.120;8.660;2022-11-03T04:40:59;9.30;81.00
13115;DHT22;6623;52.120;8.660;2022-11-03T04:43:34;9.60;81.10
13115;DHT22;6623;52.120;8.660;2022-11-03T04:46:01;9.40;81.00
13115;DHT22;6623;52.120;8.660;2022-11-03T04:48:28;10.10;81.50
13115;DHT22;6623;52.120;8.660;2022-11-03T04:50:54;10.00;81.50
13115;DHT22;6623;52.120;8.660;2022-11-03T04:53:22;9.40;81.30
13115;DHT22;6623;52.120;8.660;2022-11-03T04:55:51;9.50;81.50
13115;DHT22;6623;52.120;8.660;2022-11-03T05:01:13;9.40;81.50
13115;DHT22;6623;52.120;8.660;2022-11-03T05:03:39;9.50;81.60
13115;DHT22;6623;52.120;8.660;2022-11-03T05:08:38;9.40;81.50
13115;DHT22;6623;52.120;8.660;2022-11-03T05:11:18;9.80;81.80
13115;DHT22;6623;52.120;8.660;2022-11-03T05:13:44;9.40;81.60
13115;DHT22;6623;52.120;8.660;2022-11-03T05:16:10;9.40;81.70
13115;DHT22;6623;52.120;8.660;2022-11-03T05:18:36;9.40;81.90
13115;DHT22;6623;52.120;8.660;2022-11-03T05:21:06;9.40;81.80
13115;DHT22;6623;52.120;8.660;2022-11-03T05:23:36;9.40;81.90
13115;DHT22;6623;52.120;8.660;2022-11-03T05:26:02;9.40;81.90
13115;DHT22;6623;52.120;8.660;2022-11-03T05:28:29;9.40;82.00
13115;DHT22;6623;52.120;8.660;2022-11-03T05:30:56;9.40;82.10
13115;DHT22;6623;52.120;8.660;2022-11-03T05:33:32;9.50;82.20
13115;DHT22;6623;52.120;8.660;2022-11-03T05:36:09;9.40;82.20
13115;DHT22;6623;52.120;8.660;2022-11-03T05:38:36;9.40;82.20
13115;DHT22;6623;52.120;8.660;2022-11-03T05:41:02;10.40;82.90
13115;DHT22;6623;52.120;8.660;2022-11-03T05:43:28;9.80;82.60
13115;DHT22;6623;52.120;8.660;2022-11-03T05:45:54;10.30;82.90
13115;DHT22;6623;52.120;8.660;2022-11-03T05:48:29;9.60;82.40
13115;DHT22;6623;52.120;8.660;2022-11-03T05:50:55;10.40;82.90
13115;DHT22;6623;52.120;8.660;2022-11-03T05:53:31;9.20;82.30
13115;DHT22;6623;52.120;8.660;2022-11-03T05:56:01;9.40;82.40
13115;DHT22;6623;52.120;8.660;2022-11-03T06:00:53;9.50;82.50
13115;DHT22;6623;52.120;8.660;2022-11-03T06:03:32;9.60;82.60
13115;DHT22;6623;52.120;8.660;2022-11-03T06:05:59;9.40;82.60
13115;DHT22;6623;52.120;8.660;2022-11-03T06:08:35;9.40;82.60
13115;DHT22;6623;52.120;8.660;2022-11-03T06:11:01;9.30;82.60
13115;DHT22;6623;52.120;8.660;2022-11-03T06:13:34;9.20;82.70
13115;DHT22;6623;52.120;8.660;2022-11-03T06:16:43;9.40;82.90
13115;DHT22;6623;52.120;8.660;2022-11-03T06:18:49;9.40;82.90
13115;DHT22;6623;52.120;8.660;2022-11-03T06:21:17;9.40;82.80
13115;DHT22;6623;52.120;8.660;2022-11-03T06:23:43;9.40;82.70
13115;DHT22;6623;52.120;8.660;2022-11-03T06:26:13;9.40;82.80
13115;DHT22;6623;52.120;8.660;2022-11-03T06:28:42;9.40;82.80
13115;DHT22;6623;52.120;8.660;2022-11-03T06:31:17;9.30;82.90
13115;DHT22;6623;52.120;8.660;2022-11-03T06:33:43;9.40;82.90
13115;DHT22;6623;52.120;8.660;2022-11-03T06:36:11;10.70;83.80
13115;DHT22;6623;52.120;8.660;2022-11-03T06:38:37;9.40;83.00
13115;DHT22;6623;52.120;8.660;2022-11-03T06:41:03;10.50;83.70
13115;DHT22;6623;52.120;8.660;2022-11-03T06:46:01;9.40;83.00
13115;DHT22;6623;52.120;8.660;2022-11-03T06:48:31;9.50;83.20
13115;DHT22;6623;52.120;8.660;2022-11-03T06:50:58;9.50;83.20
13115;DHT22;6623;52.120;8.660;2022-11-03T06:53:28;10.50;83.70
13115;DHT22;6623;52.120;8.660;2022-11-03T06:55:55;9.40;83.20
13115;DHT22;6623;52.120;8.660;2022-11-03T06:58:26;9.60;83.40
13115;DHT22;6623;52.120;8.660;2022-11-03T07:00:52;9.50;83.20
13115;DHT22;6623;52.120;8.660;2022-11-03T07:05:45;9.60;83.30
13115;DHT22;6623;52.120;8.660;2022-11-03T07:08:19;9.60;83.30
13115;DHT22;6623;52.120;8.660;2022-11-03T07:10:45;9.60;83.20
13115;DHT22;6623;52.120;8.660;2022-11-03T07:13:18;9.00;82.80
13115;DHT22;6623;52.120;8.660;2022-11-03T07:15:44;9.60;83.10
13115;DHT22;6623;52.120;8.660;2022-11-03T07:18:29;9.70;83.10
13115;DHT22;6623;52.120;8.660;2022-11-03T07:20:56;9.70;82.90
13115;DHT22;6623;52.120;8.660;2022-11-03T07:23:23;9.70;82.90
13115;DHT22;6623;52.120;8.660;2022-11-03T07:25:50;9.70;83.40
13115;DHT22;6623;52.120;8.660;2022-11-03T07:28:19;9.80;82.70
13115;DHT22;6623;52.120;8.660;2022-11-03T07:30:45;10.20;82.90
13115;DHT22;6623;52.120;8.660;2022-11-03T07:33:12;11.00;83.20
13115;DHT22;6623;52.120;8.660;2022-11-03T07:35:42;9.90;82.50
13115;DHT22;6623;52.120;8.660;2022-11-03T07:38:10;9.90;82.30
13115;DHT22;6623;52.120;8.660;2022-11-03T07:40:35;9.90;82.90
13115;DHT22;6623;52.120;8.660;2022-11-03T07:43:08;9.90;82.10
13115;DHT22;6623;52.120;8.660;2022-11-03T07:45:40;10.80;82.50
13115;DHT22;6623;52.120;8.660;2022-11-03T07:48:26;9.90;81.90
13115;DHT22;6623;52.120;8.660;2022-11-03T07:50:52;9.90;81.80
13115;DHT22;6623;52.120;8.660;2022-11-03T07:56:12;10.00;81.60
13115;DHT22;6623;52.120;8.660;2022-11-03T07:58:37;10.00;81.50
13115;DHT22;6623;52.120;8.660;2022-11-03T08:03:46;10.10;81.50
13115;DHT22;6623;52.120;8.660;2022-11-03T08:06:11;10.10;81.40
13115;DHT22;6623;52.120;8.660;2022-11-03T08:08:37;10.20;81.40
13115;DHT22;6623;52.120;8.660;2022-11-03T08:11:03;10.20;81.30
13115;DHT22;6623;52.120;8.660;2022-11-03T08:13:28;10.20;81.20
13115;DHT22;6623;52.120;8.660;2022-11-03T08:15:54;10.20;81.10
13115;DHT22;6623;52.120;8.660;2022-11-03T08:18:19;10.40;81.10
13115;DHT22;6623;52.120;8.660;2022-11-03T08:20:44;10.60;81.10
13115;DHT22;6623;52.120;8.660;2022-11-03T08:23:10;10.50;80.90
13115;DHT22;6623;52.120;8.660;2022-11-03T08:25:36;11.30;81.30
13115;DHT22;6623;52.120;8.660;2022-11-03T08:28:02;10.50;80.70
13115;DHT22;6623;52.120;8.660;2022-11-03T08:30:28;11.00;80.90
13115;DHT22;6623;52.120;8.660;2022-11-03T08:32:54;11.00;80.80
13115;DHT22;6623;52.120;8.660;2022-11-03T08:35:19;10.70;80.60
13115;DHT22;6623;52.120;8.660;2022-11-03T08:37:45;11.70;81.20
13115;DHT22;6623;52.120;8.660;2022-11-03T08:40:10;10.70;80.40
13115;DHT22;6623;52.120;8.660;2022-11-03T08:42:36;10.70;80.40
13115;DHT22;6623;52.120;8.660;2022-11-03T08:45:01;10.70;80.30
13115;DHT22;6623;52.120;8.660;2022-11-03T08:47:27;10.80;80.10
13115;DHT22;6623;52.120;8.660;2022-11-03T08:49:52;10.80;79.90
13115;DHT22;6623;52.120;8.660;2022-11-03T08:52:18;10.90;79.90
13115;DHT22;6623;52.120;8.660;2022-11-03T08:54:44;10.80;79.70
13115;DHT22;6623;52.120;8.660;2022-11-03T08:57:09;10.90;79.70
13115;DHT22;6623;52.120;8.660;2022-11-03T08:59:35;10.90;79.50
13115;DHT22;6623;52.120;8.660;2022-11-03T09:02:00;11.00;79.50
13115;DHT22;6623;52.120;8.660;2022-11-03T09:04:25;11.20;79.60
13115;DHT22;6623;52.120;8.660;2022-11-03T09:06:51;11.00;79.40
13115;DHT22;6623;52.120;8.660;2022-11-03T09:09:16;11.10;79.30
13115;DHT22;6623;52.120;8.660;2022-11-03T09:11:42;11.10;79.00
13115;DHT22;6623;52.120;8.660;2022-11-03T09:14:07;11.10;78.70
13115;DHT22;6623;52.120;8.660;2022-11-03T09:16:33;11.50;78.90
13115;DHT22;6623;52.120;8.660;2022-11-03T09:18:58;11.20;78.80
13115;DHT22;6623;52.120;8.660;2022-11-03T09:21:24;11.20;78.70
13115;DHT22;6623;52.120;8.660;2022-11-03T09:23:49;11.20;78.60
13115;DHT22;6623;52.120;8.660;2022-11-03T09:26:15;11.20;78.40
13115;DHT22;6623;52.120;8.660;2022-11-03T09:28:40;11.60;78.70
13115;DHT22;6623;52.120;8.660;2022-11-03T09:31:06;11.70;78.70
13115;DHT22;6623;52.120;8.660;2022-11-03T09:33:31;12.30;79.00
13115;DHT22;6623;52.120;8.660;2022-11-03T09:35:59;11.80;78.70
13115;DHT22;6623;52.120;8.660;2022-11-03T09:38:26;11.50;78.50
13115;DHT22;6623;52.120;8.660;2022-11-03T09:40:51;12.20;78.80
13115;DHT22;6623;52.120;8.660;2022-11-03T09:43:17;11.60;78.20
13115;DHT22;6623;52.120;8.660;2022-11-03T09:45:42;11.60;78.10
13115;DHT22;6623;52.120;8.660;2022-11-03T09:48:08;11.70;78.00
13115;DHT22;6623;52.120;8.660;2022-11-03T09:50:34;11.60;77.80
13115;DHT22;6623;52.120;8.660;2022-11-03T09:53:00;12.80;78.40
13115;DHT22;6623;52.120;8.660;2022-11-03T09:55:26;11.70;77.60
13115;DHT22;6623;52.120;8.660;2022-11-03T09:57:59;12.10;77.70
13115;DHT22;6623;52.120;8.660;2022-11-03T10:00:25;11.80;77.40
13115;DHT22;6623;52.120;8.660;2022-11-03T10:02:53;12.10;77.40
13115;DHT22;6623;52.120;8.660;2022-11-03T10:05:24;12.00;77.10
13115;DHT22;6623;52.120;8.660;2022-11-03T10:07:50;11.90;77.00
13115;DHT22;6623;52.120;8.660;2022-11-03T10:10:19;12.30;77.20
13115;DHT22;6623;52.120;8.660;2022-11-03T10:12:46;12.00;76.90
13115;DHT22;6623;52.120;8.660;2022-11-03T10:15:13;12.00;77.00
13115;DHT22;6623;52.120;8.660;2022-11-03T10:17:39;12.00;77.00
13115;DHT22;6623;52.120;8.660;2022-11-03T10:20:05;12.10;77.40
13115;DHT22;6623;52.120;8.660;2022-11-03T10:22:31;12.10;76.60
13115;DHT22;6623;52.120;8.660;2022-11-03T10:27:44;12.20;76.50
13115;DHT22;6623;52.120;8.660;2022-11-03T10:30:10;12.20;76.50
13115;DHT22;6623;52.120;8.660;2022-11-03T10:32:36;12.30;76.40
13115;DHT22;6623;52.120;8.660;2022-11-03T10:35:08;13.20;77.00
13115;DHT22;6623;52.120;8.660;2022-11-03T10:37:47;12.40;76.80
13115;DHT22;6623;52.120;8.660;2022-11-03T10:40:32;12.40;76.10
13115;DHT22;6623;52.120;8.660;2022-11-03T10:42:58;12.40;76.00
13115;DHT22;6623;52.120;8.660;2022-11-03T10:45:24;12.50;75.90
13115;DHT22;6623;52.120;8.660;2022-11-03T10:47:59;12.50;75.90
13115;DHT22;6623;52.120;8.660;2022-11-03T10:50:25;12.60;75.90
13115;DHT22;6623;52.120;8.660;2022-11-03T10:52:51;13.40;76.20
13115;DHT22;6623;52.120;8.660;2022-11-03T10:55:21;13.40;76.00
13115;DHT22;6623;52.120;8.660;2022-11-03T10:57:46;12.60;75.60
13115;DHT22;6623;52.120;8.660;2022-11-03T11:00:14;12.60;75.60
13115;DHT22;6623;52.120;8.660;2022-11-03T11:02:41;12.70;75.70
13115;DHT22;6623;52.120;8.660;2022-11-03T11:05:11;12.70;75.50
13115;DHT22;6623;52.120;8.660;2022-11-03T11:07:38;12.70;75.50
13115;DHT22;6623;52.120;8.660;2022-11-03T11:10:10;12.70;75.40
13115;DHT22;6623;52.120;8.660;2022-11-03T11:12:37;12.80;75.40
13115;DHT22;6623;52.120;8.660;2022-11-03T11:15:03;13.00;75.60
13115;DHT22;6623;52.120;8.660;2022-11-03T11:22:43;12.90;75.50
13115;DHT22;6623;52.120;8.660;2022-11-03T11:25:09;12.90;75.50
13115;DHT22;6623;52.120;8.660;2022-11-03T11:30:03;13.00;75.40
13115;DHT22;6623;52.120;8.660;2022-11-03T11:35:01;13.00;75.50
13115;DHT22;6623;52.120;8.660;2022-11-03T11:39:52;13.90;76.10
13115;DHT22;6623;52.120;8.660;2022-11-03T11:42:18;13.20;75.70
13115;DHT22;6623;52.120;8.660;2022-11-03T11:44:52;13.10;75.50
13115;DHT22;6623;52.120;8.660;2022-11-03T11:54:57;13.20;75.50
13115;DHT22;6623;52.120;8.660;2022-11-03T11:57:22;14.30;76.10
13115;DHT22;6623;52.120;8.660;2022-11-03T11:59:48;13.10;75.50
13115;DHT22;6623;52.120;8.660;2022-11-03T12:02:18;13.10;75.40
13115;DHT22;6623;52.120;8.660;2022-11-03T12:04:47;13.10;75.40
13115;DHT22;6623;52.120;8.660;2022-11-03T12:07:13;13.10;75.40
13115;DHT22;6623;52.120;8.660;2022-11-03T12:09:38;13.00;75.40
13115;DHT22;6623;52.120;8.660;2022-11-03T12:12:04;13.50;75.70
13115;DHT22;6623;52.120;8.660;2022-11-03T12:16:56;13.50;75.90
13115;DHT22;6623;52.120;8.660;2022-11-03T12:19:44;13.40;75.60
13115;DHT22;6623;52.120;8.660;2022-11-03T12:22:10;13.10;75.40
13115;DHT22;6623;52.120;8.660;2022-11-03T12:24:38;13.50;75.30
13115;DHT22;6623;52.120;8.660;2022-11-03T12:29:48;13.20;75.10
13115;DHT22;6623;52.120;8.660;2022-11-03T12:32:13;13.20;75.10
13115;DHT22;6623;52.120;8.660;2022-11-03T12:34:39;13.20;75.10
13115;DHT22;6623;52.120;8.660;2022-11-03T12:37:04;13.20;75.10
13115;DHT22;6623;52.120;8.660;2022-11-03T12:39:30;13.20;75.00
13115;DHT22;6623;52.120;8.660;2022-11-03T12:41:55;13.20;74.80
13115;DHT22;6623;52.120;8.660;2022-11-03T12:44:21;13.80;74.80
13115;DHT22;6623;52.120;8.660;2022-11-03T12:46:46;13.20;74.00
13115;DHT22;6623;52.120;8.660;2022-11-03T12:49:12;13.30;74.30
13115;DHT22;6623;52.120;8.660;2022-11-03T12:51:37;13.60;74.50
13115;DHT22;6623;52.120;8.660;2022-11-03T12:54:02;14.00;74.80
13115;DHT22;6623;52.120;8.660;2022-11-03T12:56:28;13.30;74.40
13115;DHT22;6623;52.120;8.660;2022-11-03T12:58:53;13.10;74.30
13115;DHT22;6623;52.120;8.660;2022-11-03T13:01:19;13.30;74.40
13115;DHT22;6623;52.120;8.660;2022-11-03T13:03:45;14.40;75.00
13115;DHT22;6623;52.120;8.660;2022-11-03T13:06:10;13.60;74.60
13115;DHT22;6623;52.120;8.660;2022-11-03T13:08:39;14.40;75.00
13115;DHT22;6623;52.120;8.660;2022-11-03T13:11:04;14.10;74.90
13115;DHT22;6623;52.120;8.660;2022-11-03T13:13:50;13.40;74.40
13115;DHT22;6623;52.120;8.660;2022-11-03T13:16:16;13.50;74.50
13115;DHT22;6623;52.120;8.660;2022-11-03T13:18:42;13.30;74.40
13115;DHT22;6623;52.120;8.660;2022-11-03T13:21:07;14.00;74.80
13115;DHT22;6623;52.120;8.660;2022-11-03T13:23:32;13.40;74.70
13115;DHT22;6623;52.120;8.660;2022-11-03T13:25:58;13.30;74.90
13115;DHT22;6623;52.120;8.660;2022-11-03T13:28:24;13.40;74.80
13115;DHT22;6623;52.120;8.660;2022-11-03T13:30:49;13.80;75.00
13115;DHT22;6623;52.120;8.660;2022-11-03T13:33:14;13.90;74.70
13115;DHT22;6623;52.120;8.660;2022-11-03T13:35:40;13.60;74.70
13115;DHT22;6623;52.120;8.660;2022-11-03T13:38:05;13.60;73.90
13115;DHT22;6623;52.120;8.660;2022-11-03T13:40:31;13.60;73.90
13115;DHT22;6623;52.120;8.660;2022-11-03T13:42:56;13.50;73.60
13115;DHT22;6623;52.120;8.660;2022-11-03T13:45:22;13.50;73.60
13115;DHT22;6623;52.120;8.660;2022-11-03T13:47:48;13.50;73.70
13115;DHT22;6623;52.120;8.660;2022-11-03T13:50:13;13.50;73.80
13115;DHT22;6623;52.120;8.660;2022-11-03T13:52:39;14.00;74.10
13115;DHT22;6623;52.120;8.660;2022-11-03T13:55:04;13.80;74.00
13115;DHT22;6623;52.120;8.660;2022-11-03T13:57:30;13.40;73.80
13115;DHT22;6623;52.120;8.660;2022-11-03T13:59:55;13.40;73.70
13115;DHT22;6623;52.120;8.660;2022-11-03T14:02:21;14.10;73.80
13115;DHT22;6623;52.120;8.660;2022-11-03T14:04:46;13.60;73.70
13115;DHT22;6623;52.120;8.660;2022-11-03T14:07:12;13.50;73.50
13115;DHT22;6623;52.120;8.660;2022-11-03T14:09:37;13.50;74.00
13115;DHT22;6623;52.120;8.660;2022-11-03T14:12:03;13.70;73.40
13115;DHT22;6623;52.120;8.660;2022-11-03T14:14:47;13.50;73.10
13115;DHT22;6623;52.120;8.660;2022-11-03T14:17:13;13.50;72.80
13115;DHT22;6623;52.120;8.660;2022-11-03T14:19:38;13.50;72.80
13115;DHT22;6623;52.120;8.660;2022-11-03T14:22:04;13.40;72.70
13115;DHT22;6623;52.120;8.660;2022-11-03T14:24:29;13.40;72.70
13115;DHT22;6623;52.120;8.660;2022-11-03T14:26:54;13.40;72.90
13115;DHT22;6623;52.120;8.660;2022-11-03T14:29:20;13.40;72.80
13115;DHT22;6623;52.120;8.660;2022-11-03T14:31:45;13.40;72.70
13115;DHT22;6623;52.120;8.660;2022-11-03T14:34:11;13.40;72.70
13115;DHT22;6623;52.120;8.660;2022-11-03T14:36:36;13.40;72.60
13115;DHT22;6623;52.120;8.660;2022-11-03T14:39:02;13.60;72.70
13115;DHT22;6623;52.120;8.660;2022-11-03T14:41:27;13.40;72.60
13115;DHT22;6623;52.120;8.660;2022-11-03T14:44:12;14.40;73.20
13115;DHT22;6623;52.120;8.660;2022-11-03T14:46:37;13.30;72.70
13115;DHT22;6623;52.120;8.660;2022-11-03T14:49:03;13.40;72.80
13115;DHT22;6623;52.120;8.660;2022-11-03T14:51:28;13.30;72.80
13115;DHT22;6623;52.120;8.660;2022-11-03T14:53:54;13.30;72.90
13115;DHT22;6623;52.120;8.660;2022-11-03T14:56:19;13.30;73.20
13115;DHT22;6623;52.120;8.660;2022-11-03T14:58:45;13.60;73.70
13115;DHT22;6623;52.120;8.660;2022-11-03T15:01:10;13.20;73.60
13115;DHT22;6623;52.120;8.660;2022-11-03T15:03:36;13.30;73.80
13115;DHT22;6623;52.120;8.660;2022-11-03T15:06:01;13.20;74.00
13115;DHT22;6623;52.120;8.660;2022-11-03T15:08:27;13.20;74.40
13115;DHT22;6623;52.120;8.660;2022-11-03T15:10:53;13.70;74.70
13115;DHT22;6623;52.120;8.660;2022-11-03T15:13:19;12.40;74.10
13115;DHT22;6623;52.120;8.660;2022-11-03T15:15:44;13.90;75.80
13115;DHT22;6623;52.120;8.660;2022-11-03T15:18:10;13.30;74.90
13115;DHT22;6623;52.120;8.660;2022-11-03T15:20:35;13.30;75.00
13115;DHT22;6623;52.120;8.660;2022-11-03T15:23:02;13.60;75.20
13115;DHT22;6623;52.120;8.660;2022-11-03T15:25:28;13.60;75.30
13115;DHT22;6623;52.120;8.660;2022-11-03T15:27:53;13.00;75.00
13115;DHT22;6623;52.120;8.660;2022-11-03T15:30:19;13.10;75.20
13115;DHT22;6623;52.120;8.660;2022-11-03T15:32:45;13.00;75.20
13115;DHT22;6623;52.120;8.660;2022-11-03T15:35:10;13.40;75.40
13115;DHT22;6623;52.120;8.660;2022-11-03T15:37:48;12.90;76.00
13115;DHT22;6623;52.120;8.660;2022-11-03T15:40:29;12.90;75.30
13115;DHT22;6623;52.120;8.660;2022-11-03T15:45:58;12.90;75.40
13115;DHT22;6623;52.120;8.660;2022-11-03T15:48:24;13.70;76.00
13115;DHT22;6623;52.120;8.660;2022-11-03T15:50:49;14.10;76.30
13115;DHT22;6623;52.120;8.660;2022-11-03T15:53:15;12.80;75.60
13115;DHT22;6623;52.120;8.660;2022-11-03T15:55:40;13.30;76.00
13115;DHT22;6623;52.120;8.660;2022-11-03T15:58:06;12.80;75.80
13115;DHT22;6623;52.120;8.660;2022-11-03T16:00:31;13.60;76.30
13115;DHT22;6623;52.120;8.660;2022-11-03T16:02:56;12.80;75.90
13115;DHT22;6623;52.120;8.660;2022-11-03T16:05:22;12.80;76.00
13115;DHT22;6623;52.120;8.660;2022-11-03T16:07:48;13.30;76.30
13115;DHT22;6623;52.120;8.660;2022-11-03T16:10:13;12.30;75.80
13115;DHT22;6623;52.120;8.660;2022-11-03T16:12:38;12.70;76.10
13115;DHT22;6623;52.120;8.660;2022-11-03T16:15:04;12.70;76.20
13115;DHT22;6623;52.120;8.660;2022-11-03T16:17:30;12.70;76.30
13115;DHT22;6623;52.120;8.660;2022-11-03T16:19:55;12.70;76.30
13115;DHT22;6623;52.120;8.660;2022-11-03T16:22:21;12.70;76.30
13115;DHT22;6623;52.120;8.660;2022-11-03T16:26:49;14.30;87.50
13115;DHT22;6623;52.120;8.660;2022-11-03T16:29:15;15.70;77.60
13115;DHT22;6623;52.120;8.660;2022-11-03T16:31:41;15.80;75.80
13115;DHT22;6623;52.120;8.660;2022-11-03T16:34:06;14.40;74.70
13115;DHT22;6623;52.120;8.660;2022-11-03T16:36:32;13.80;74.60
13115;DHT22;6623;52.120;8.660;2022-11-03T16:38:58;13.60;74.70
13115;DHT22;6623;52.120;8.660;2022-11-03T16:41:23;13.40;74.80
13115;DHT22;6623;52.120;8.660;2022-11-03T16:43:49;13.30;75.00
13115;DHT22;6623;52.120;8.660;2022-11-03T16:46:15;13.50;75.30
13115;DHT22;6623;52.120;8.660;2022-11-03T16:48:41;13.90;75.60
13115;DHT22;6623;52.120;8.660;2022-11-03T16:51:06;12.80;75.10
13115;DHT22;6623;52.120;8.660;2022-11-03T16:53:32;12.90;75.20
13115;DHT22;6623;52.120;8.660;2022-11-03T16:55:57;12.90;75.20
13115;DHT22;6623;52.120;8.660;2022-11-03T16:58:23;13.60;75.70
13115;DHT22;6623;52.120;8.660;2022-11-03T17:00:49;13.40;75.50
13115;DHT22;6623;52.120;8.660;2022-11-03T17:03:14;12.80;75.20
13115;DHT22;6623;52.120;8.660;2022-11-03T17:05:40;12.80;75.30